FTL2 KJFK-EDDF
Flight info
| Callsign | FTL2 |
|---|---|
| Flight time | N/A |
| Altitude | 33000 |
| Route | MERIT DCT HFD DCT PUT DCT TOPPS N683B NEEKO/M085F350 DCT 54N050W 55N040W 55N030W 54N020W DCT MALOT DCT GISTI/N0493F370 DCT ENJEX DCT ADHAV DCT AXNEF DCT ZIPWE DCT OZZIL DCT SAWPE Q63 CPT UL9 BIG L607 KONAN DCT KOK UL607 FERDI DCT REMBA DCT SPI T180 NIVNU T847 IMCOM IMCOM1D |
| Aircraft | B742/H-SDFHIRWXY/L |
Departure
| Time | 2026-05-01 11:20 |
|---|---|
| Airport | John F. Kennedy International Airport (KJFK) |
Arrival
| Time | N/A |
|---|---|
| Airport | Frankfurt Main Airport (EDDF) |
| Time | Latitude | Longitude | Altitude | Speed | Heading |
|---|---|---|---|---|---|
| 2026-05-01 10:35 | 40.66024 | -73.78741 | 18 ft | 0 kts | 301° |
| 2026-05-01 10:59 | 40.66022 | -73.78737 | 18 ft | 4 kts | 301° |
| 2026-05-01 11:00 | 40.66013 | -73.78718 | 18 ft | 2 kts | 300° |
| 2026-05-01 11:00 | 40.66006 | -73.78701 | 18 ft | 2 kts | 301° |
| 2026-05-01 11:00 | 40.65998 | -73.78684 | 18 ft | 2 kts | 301° |
| 2026-05-01 11:00 | 40.65990 | -73.78667 | 18 ft | 2 kts | 301° |
| 2026-05-01 11:01 | 40.65986 | -73.78657 | 18 ft | 2 kts | 298° |
| 2026-05-01 11:01 | 40.65982 | -73.78638 | 18 ft | 2 kts | 266° |
| 2026-05-01 11:01 | 40.65985 | -73.78619 | 18 ft | 2 kts | 240° |
| 2026-05-01 11:01 | 40.65995 | -73.78603 | 18 ft | 1 kts | 215° |
| 2026-05-01 11:02 | 40.66000 | -73.78599 | 18 ft | 1 kts | 210° |
| 2026-05-01 11:02 | 40.66002 | -73.78598 | 18 ft | 0 kts | 210° |
| 2026-05-01 11:06 | 40.66001 | -73.78598 | 18 ft | 0 kts | 210° |
| 2026-05-01 11:07 | 40.65965 | -73.78629 | 18 ft | 9 kts | 214° |
| 2026-05-01 11:07 | 40.65893 | -73.78690 | 18 ft | 14 kts | 212° |
| 2026-05-01 11:07 | 40.65808 | -73.78751 | 18 ft | 12 kts | 190° |
| 2026-05-01 11:07 | 40.65754 | -73.78696 | 18 ft | 9 kts | 120° |
| 2026-05-01 11:08 | 40.65721 | -73.78622 | 18 ft | 9 kts | 120° |
| 2026-05-01 11:08 | 40.65688 | -73.78548 | 18 ft | 9 kts | 120° |
| 2026-05-01 11:08 | 40.65600 | -73.78361 | 17 ft | 14 kts | 121° |
| 2026-05-01 11:09 | 40.65541 | -73.78236 | 17 ft | 17 kts | 121° |
| 2026-05-01 11:09 | 40.65475 | -73.78086 | 17 ft | 20 kts | 122° |
| 2026-05-01 11:09 | 40.65401 | -73.77913 | 17 ft | 23 kts | 118° |
| 2026-05-01 11:10 | 40.65231 | -73.77533 | 17 ft | 24 kts | 121° |
| 2026-05-01 11:10 | 40.65143 | -73.77342 | 17 ft | 24 kts | 121° |
| 2026-05-01 11:10 | 40.65056 | -73.77148 | 17 ft | 24 kts | 120° |
| 2026-05-01 11:10 | 40.64968 | -73.76953 | 18 ft | 24 kts | 121° |
| 2026-05-01 11:11 | 40.64897 | -73.76793 | 18 ft | 6 kts | 117° |
| 2026-05-01 11:11 | 40.64881 | -73.76754 | 18 ft | 3 kts | 125° |
| 2026-05-01 11:11 | 40.64865 | -73.76735 | 18 ft | 3 kts | 147° |
| 2026-05-01 11:11 | 40.64842 | -73.76729 | 18 ft | 4 kts | 195° |
| 2026-05-01 11:12 | 40.64811 | -73.76752 | 18 ft | 6 kts | 211° |
| 2026-05-01 11:12 | 40.64762 | -73.76788 | 18 ft | 9 kts | 209° |
| 2026-05-01 11:12 | 40.64693 | -73.76837 | 18 ft | 13 kts | 207° |
| 2026-05-01 11:12 | 40.64603 | -73.76904 | 18 ft | 16 kts | 213° |
| 2026-05-01 11:13 | 40.64497 | -73.76985 | 17 ft | 19 kts | 191° |
| 2026-05-01 11:13 | 40.64358 | -73.77040 | 17 ft | 22 kts | 208° |
| 2026-05-01 11:13 | 40.64214 | -73.77158 | 17 ft | 25 kts | 210° |
| 2026-05-01 11:13 | 40.64061 | -73.77275 | 17 ft | 25 kts | 211° |
| 2026-05-01 11:14 | 40.63905 | -73.77398 | 16 ft | 26 kts | 210° |
| 2026-05-01 11:14 | 40.63746 | -73.77518 | 16 ft | 26 kts | 213° |
| 2026-05-01 11:14 | 40.63588 | -73.77644 | 16 ft | 26 kts | 211° |
| 2026-05-01 11:14 | 40.63428 | -73.77771 | 16 ft | 26 kts | 212° |
| 2026-05-01 11:15 | 40.63308 | -73.77809 | 16 ft | 16 kts | 133° |
| 2026-05-01 11:15 | 40.63244 | -73.77670 | 16 ft | 18 kts | 117° |
| 2026-05-01 11:15 | 40.63181 | -73.77521 | 15 ft | 18 kts | 120° |
| 2026-05-01 11:15 | 40.63125 | -73.77396 | 15 ft | 6 kts | 121° |
| 2026-05-01 11:16 | 40.63111 | -73.77365 | 15 ft | 0 kts | 120° |
| 2026-05-01 11:16 | 40.63111 | -73.77364 | 15 ft | 0 kts | 120° |
| 2026-05-01 11:16 | 40.63102 | -73.77345 | 15 ft | 5 kts | 121° |
| 2026-05-01 11:17 | 40.63069 | -73.77274 | 15 ft | 12 kts | 121° |
| 2026-05-01 11:17 | 40.63011 | -73.77151 | 15 ft | 17 kts | 121° |
| 2026-05-01 11:17 | 40.62929 | -73.77090 | 15 ft | 15 kts | 211° |
| 2026-05-01 11:17 | 40.62839 | -73.77172 | 15 ft | 15 kts | 214° |
| 2026-05-01 11:18 | 40.62836 | -73.77261 | 15 ft | 7 kts | 306° |
| 2026-05-01 11:18 | 40.62846 | -73.77282 | 15 ft | 0 kts | 301° |
| 2026-05-01 11:19 | 40.62871 | -73.77336 | 15 ft | 28 kts | 302° |
| 2026-05-01 11:19 | 40.63089 | -73.77800 | 15 ft | 90 kts | 301° |
| 2026-05-01 11:19 | 40.63509 | -73.78738 | 17 ft | 145 kts | 301° |
| 2026-05-01 11:19 | 40.64091 | -73.80042 | 122 ft | 179 kts | 300° |
| 2026-05-01 11:20 | 40.64590 | -73.81544 | 672 ft | 180 kts | 279° |
| 2026-05-01 11:20 | 40.64440 | -73.83192 | 1113 ft | 189 kts | 252° |
| 2026-05-01 11:20 | 40.63801 | -73.84786 | 1376 ft | 205 kts | 237° |
| 2026-05-01 11:20 | 40.62819 | -73.86169 | 1676 ft | 208 kts | 221° |
| 2026-05-01 11:21 | 40.61551 | -73.87121 | 1936 ft | 215 kts | 205° |
| 2026-05-01 11:21 | 40.60064 | -73.87621 | 2097 ft | 226 kts | 187° |
| 2026-05-01 11:21 | 40.58450 | -73.87548 | 2315 ft | 233 kts | 171° |
| 2026-05-01 11:21 | 40.56890 | -73.87119 | 2690 ft | 232 kts | 165° |
| 2026-05-01 11:22 | 40.55303 | -73.86439 | 2852 ft | 240 kts | 161° |
| 2026-05-01 11:22 | 40.53711 | -73.85689 | 3040 ft | 248 kts | 160° |
| 2026-05-01 11:22 | 40.52138 | -73.84726 | 3311 ft | 251 kts | 142° |
| 2026-05-01 11:22 | 40.51016 | -73.83002 | 3403 ft | 250 kts | 111° |
| 2026-05-01 11:23 | 40.50691 | -73.80743 | 3325 ft | 261 kts | 75° |
| 2026-05-01 11:23 | 40.51353 | -73.78553 | 3513 ft | 263 kts | 49° |
| 2026-05-01 11:23 | 40.52747 | -73.77024 | 3904 ft | 263 kts | 20° |
| 2026-05-01 11:23 | 40.54493 | -73.76471 | 4560 ft | 258 kts | 3° |
| 2026-05-01 11:24 | 40.56200 | -73.75961 | 5234 ft | 259 kts | 23° |
| 2026-05-01 11:24 | 40.57756 | -73.74548 | 5390 ft | 282 kts | 40° |
| 2026-05-01 11:24 | 40.60755 | -73.71492 | 6966 ft | 263 kts | 21° |
| 2026-05-01 11:25 | 40.62364 | -73.70473 | 7695 ft | 257 kts | 23° |
| 2026-05-01 11:25 | 40.65481 | -73.68275 | 8882 ft | 257 kts | 25° |
| 2026-05-01 11:25 | 40.67098 | -73.67085 | 9127 ft | 271 kts | 26° |
| 2026-05-01 11:26 | 40.68777 | -73.65831 | 9381 ft | 285 kts | 26° |
| 2026-05-01 11:26 | 40.72442 | -73.63124 | 9891 ft | 315 kts | 26° |
| 2026-05-01 11:26 | 40.74377 | -73.61686 | 10141 ft | 330 kts | 26° |
| 2026-05-01 11:27 | 40.76430 | -73.60162 | 10393 ft | 345 kts | 26° |
| 2026-05-01 11:27 | 40.78571 | -73.58572 | 10650 ft | 360 kts | 26° |
| 2026-05-01 11:27 | 40.80817 | -73.56907 | 10911 ft | 374 kts | 26° |
| 2026-05-01 11:27 | 40.83148 | -73.55173 | 11171 ft | 388 kts | 26° |
| 2026-05-01 11:28 | 40.85540 | -73.53391 | 11426 ft | 401 kts | 26° |
| 2026-05-01 11:28 | 40.88055 | -73.51508 | 11689 ft | 414 kts | 26° |
| 2026-05-01 11:28 | 40.88419 | -73.51236 | 11747 ft | 415 kts | 26° |
| 2026-05-01 11:29 | 40.91618 | -73.48840 | 12499 ft | 418 kts | 26° |
| 2026-05-01 11:29 | 40.93221 | -73.47656 | 12849 ft | 421 kts | 26° |
| 2026-05-01 11:29 | 40.98333 | -73.43787 | 13882 ft | 428 kts | 26° |
| 2026-05-01 11:30 | 41.00986 | -73.41791 | 14400 ft | 433 kts | 26° |
| 2026-05-01 11:30 | 41.03644 | -73.39793 | 14885 ft | 437 kts | 25° |
| 2026-05-01 11:30 | 41.06317 | -73.37833 | 15380 ft | 441 kts | 25° |
| 2026-05-01 11:30 | 41.08991 | -73.35834 | 15865 ft | 445 kts | 26° |
| 2026-05-01 11:31 | 41.11705 | -73.33717 | 16326 ft | 449 kts | 27° |
| 2026-05-01 11:31 | 41.14379 | -73.31646 | 16798 ft | 451 kts | 26° |
| 2026-05-01 11:31 | 41.17153 | -73.29617 | 17277 ft | 454 kts | 25° |
| 2026-05-01 11:31 | 41.19961 | -73.27569 | 17726 ft | 458 kts | 25° |
| 2026-05-01 11:32 | 41.22767 | -73.25468 | 18179 ft | 461 kts | 26° |
| 2026-05-01 11:32 | 41.25589 | -73.23332 | 18623 ft | 465 kts | 26° |
| 2026-05-01 11:32 | 41.28433 | -73.21174 | 19057 ft | 468 kts | 26° |
| 2026-05-01 11:32 | 41.31253 | -73.19035 | 19475 ft | 471 kts | 26° |
| 2026-05-01 11:33 | 41.34119 | -73.16861 | 19887 ft | 474 kts | 26° |
| 2026-05-01 11:33 | 41.36867 | -73.14368 | 20245 ft | 483 kts | 37° |
| 2026-05-01 11:33 | 41.39204 | -73.11130 | 20623 ft | 491 kts | 49° |
| 2026-05-01 11:33 | 41.41199 | -73.07372 | 21008 ft | 495 kts | 56° |
| 2026-05-01 11:34 | 41.42999 | -73.03419 | 21373 ft | 499 kts | 58° |
| 2026-05-01 11:34 | 41.44732 | -72.99384 | 21732 ft | 502 kts | 59° |
| 2026-05-01 11:34 | 41.46467 | -72.95300 | 22082 ft | 504 kts | 59° |
| 2026-05-01 11:34 | 41.48226 | -72.91190 | 22423 ft | 506 kts | 58° |
| 2026-05-01 11:35 | 41.49996 | -72.87094 | 22753 ft | 509 kts | 58° |
| 2026-05-01 11:35 | 41.51785 | -72.82987 | 23074 ft | 511 kts | 58° |
| 2026-05-01 11:35 | 41.53597 | -72.78844 | 23384 ft | 513 kts | 58° |
| 2026-05-01 11:35 | 41.55416 | -72.74690 | 23684 ft | 515 kts | 58° |
| 2026-05-01 11:36 | 41.57226 | -72.70558 | 23974 ft | 517 kts | 58° |
| 2026-05-01 11:36 | 41.59066 | -72.66350 | 24260 ft | 519 kts | 58° |
| 2026-05-01 11:36 | 41.60897 | -72.62154 | 24533 ft | 521 kts | 59° |
| 2026-05-01 11:36 | 41.62739 | -72.57930 | 24797 ft | 523 kts | 59° |
| 2026-05-01 11:37 | 41.64590 | -72.53702 | 25057 ft | 524 kts | 58° |
| 2026-05-01 11:37 | 41.66472 | -72.49492 | 25314 ft | 526 kts | 58° |
| 2026-05-01 11:37 | 41.68343 | -72.45348 | 25561 ft | 528 kts | 58° |
| 2026-05-01 11:37 | 41.70240 | -72.41155 | 25808 ft | 529 kts | 58° |
| 2026-05-01 11:38 | 41.72158 | -72.36911 | 26054 ft | 531 kts | 58° |
| 2026-05-01 11:38 | 41.74093 | -72.32615 | 26293 ft | 532 kts | 59° |
| 2026-05-01 11:38 | 41.75983 | -72.28404 | 26519 ft | 534 kts | 59° |
| 2026-05-01 11:38 | 41.77899 | -72.24127 | 26740 ft | 535 kts | 59° |
| 2026-05-01 11:39 | 41.79822 | -72.19830 | 26958 ft | 537 kts | 60° |
| 2026-05-01 11:39 | 41.81772 | -72.15466 | 27176 ft | 538 kts | 60° |
| 2026-05-01 11:39 | 41.83690 | -72.11165 | 27383 ft | 539 kts | 60° |
| 2026-05-01 11:39 | 41.85631 | -72.06807 | 27581 ft | 541 kts | 60° |
| 2026-05-01 11:40 | 41.87578 | -72.02428 | 27776 ft | 542 kts | 60° |
| 2026-05-01 11:40 | 41.89543 | -71.98003 | 27970 ft | 544 kts | 60° |
| 2026-05-01 11:40 | 41.91469 | -71.93664 | 28156 ft | 545 kts | 60° |
| 2026-05-01 11:40 | 41.93421 | -71.89262 | 28333 ft | 547 kts | 60° |
| 2026-05-01 11:41 | 41.95627 | -71.85035 | 28476 ft | 549 kts | 50° |
| 2026-05-01 11:41 | 41.98266 | -71.81240 | 28650 ft | 551 kts | 44° |
| 2026-05-01 11:41 | 42.01109 | -71.77797 | 28815 ft | 552 kts | 40° |
| 2026-05-01 11:41 | 42.04084 | -71.74479 | 28971 ft | 553 kts | 38° |
| 2026-05-01 11:42 | 42.07137 | -71.71160 | 29129 ft | 555 kts | 38° |
| 2026-05-01 11:42 | 42.10116 | -71.67910 | 29281 ft | 556 kts | 39° |
| 2026-05-01 11:42 | 42.13160 | -71.64545 | 29423 ft | 557 kts | 39° |
| 2026-05-01 11:42 | 42.16164 | -71.61182 | 29560 ft | 558 kts | 39° |
| 2026-05-01 11:43 | 42.19140 | -71.57819 | 29689 ft | 559 kts | 40° |
| 2026-05-01 11:43 | 42.22129 | -71.54425 | 29814 ft | 560 kts | 40° |
| 2026-05-01 11:43 | 42.25103 | -71.51040 | 30153 ft | 553 kts | 40° |
| 2026-05-01 11:44 | 42.30842 | -71.44498 | 31512 ft | 527 kts | 40° |
| 2026-05-01 11:44 | 42.33609 | -71.41339 | 32066 ft | 518 kts | 40° |
| 2026-05-01 11:44 | 42.36328 | -71.38232 | 32360 ft | 518 kts | 40° |
| 2026-05-01 11:44 | 42.39103 | -71.35059 | 32663 ft | 517 kts | 40° |
| 2026-05-01 11:45 | 42.41833 | -71.31931 | 32914 ft | 519 kts | 41° |
| 2026-05-01 11:45 | 42.44616 | -71.28740 | 32986 ft | 524 kts | 41° |
| 2026-05-01 11:45 | 42.50223 | -71.22300 | 32938 ft | 533 kts | 41° |
| 2026-05-01 11:46 | 42.55879 | -71.15790 | 32928 ft | 538 kts | 41° |
| 2026-05-01 11:46 | 42.61585 | -71.09206 | 32892 ft | 536 kts | 41° |
| 2026-05-01 11:47 | 42.67222 | -71.02686 | 32902 ft | 528 kts | 41° |
| 2026-05-01 11:47 | 42.72806 | -70.96209 | 32908 ft | 531 kts | 41° |
| 2026-05-01 11:48 | 42.78457 | -70.89639 | 32908 ft | 535 kts | 41° |
| 2026-05-01 11:48 | 42.84107 | -70.83055 | 32900 ft | 535 kts | 42° |
| 2026-05-01 11:49 | 42.89767 | -70.76440 | 32887 ft | 533 kts | 42° |
| 2026-05-01 11:49 | 42.95438 | -70.69795 | 32878 ft | 533 kts | 42° |
| 2026-05-01 11:50 | 43.01104 | -70.63139 | 32874 ft | 533 kts | 42° |
| 2026-05-01 11:50 | 43.06766 | -70.56475 | 32872 ft | 533 kts | 42° |
| 2026-05-01 11:51 | 43.12377 | -70.49851 | 32869 ft | 533 kts | 42° |
| 2026-05-01 11:51 | 43.17992 | -70.43206 | 32869 ft | 533 kts | 42° |
| 2026-05-01 11:52 | 43.23565 | -70.36594 | 32868 ft | 533 kts | 43° |
| 2026-05-01 11:52 | 43.29216 | -70.29875 | 32869 ft | 532 kts | 43° |
| 2026-05-01 11:53 | 43.34831 | -70.23180 | 32870 ft | 532 kts | 43° |
| 2026-05-01 11:53 | 43.40438 | -70.16476 | 32869 ft | 532 kts | 44° |
| 2026-05-01 11:54 | 43.46043 | -70.09757 | 32866 ft | 532 kts | 44° |
| 2026-05-01 11:54 | 43.51619 | -70.03059 | 32863 ft | 532 kts | 44° |
| 2026-05-01 11:55 | 43.57166 | -69.96378 | 32863 ft | 531 kts | 44° |
| 2026-05-01 11:55 | 43.62714 | -69.89677 | 32871 ft | 531 kts | 44° |
| 2026-05-01 11:56 | 43.68254 | -69.82970 | 32872 ft | 532 kts | 44° |
| 2026-05-01 11:56 | 43.73783 | -69.76257 | 32860 ft | 531 kts | 44° |
| 2026-05-01 11:57 | 43.79335 | -69.69501 | 32858 ft | 531 kts | 44° |
| 2026-05-01 11:57 | 43.84851 | -69.62771 | 32855 ft | 532 kts | 44° |
| 2026-05-01 11:58 | 43.90408 | -69.55973 | 32846 ft | 532 kts | 44° |
| 2026-05-01 11:59 | 43.98732 | -69.45759 | 32843 ft | 532 kts | 44° |
| 2026-05-01 11:59 | 44.04275 | -69.38934 | 32847 ft | 533 kts | 44° |
| 2026-05-01 12:00 | 44.12652 | -69.28589 | 32837 ft | 531 kts | 45° |
| 2026-05-01 12:01 | 44.20981 | -69.18259 | 32827 ft | 531 kts | 45° |
| 2026-05-01 12:01 | 44.26564 | -69.11312 | 32823 ft | 532 kts | 45° |
| 2026-05-01 12:02 | 44.32104 | -69.04401 | 32822 ft | 532 kts | 45° |
| 2026-05-01 12:02 | 44.37635 | -68.97482 | 32821 ft | 531 kts | 45° |
| 2026-05-01 12:03 | 44.43163 | -68.90550 | 32817 ft | 532 kts | 45° |
| 2026-05-01 12:03 | 44.48675 | -68.83618 | 32812 ft | 532 kts | 45° |
| 2026-05-01 12:04 | 44.54236 | -68.76608 | 32807 ft | 533 kts | 45° |
| 2026-05-01 12:04 | 44.59754 | -68.69632 | 32802 ft | 533 kts | 45° |
| 2026-05-01 12:05 | 44.65308 | -68.62589 | 32799 ft | 533 kts | 45° |
| 2026-05-01 12:05 | 44.73542 | -68.52119 | 32795 ft | 533 kts | 46° |
| 2026-05-01 12:06 | 44.79018 | -68.45133 | 32794 ft | 533 kts | 46° |
| 2026-05-01 12:06 | 44.84509 | -68.38107 | 32793 ft | 533 kts | 46° |
| 2026-05-01 12:07 | 44.89993 | -68.31072 | 32792 ft | 532 kts | 46° |
| 2026-05-01 12:07 | 44.95467 | -68.24030 | 32786 ft | 532 kts | 46° |
| 2026-05-01 12:08 | 45.00906 | -68.17014 | 32773 ft | 531 kts | 46° |
| 2026-05-01 12:08 | 45.06343 | -68.09985 | 32753 ft | 530 kts | 47° |
| 2026-05-01 12:09 | 45.11792 | -68.02921 | 32761 ft | 530 kts | 47° |
| 2026-05-01 12:09 | 45.17256 | -67.95811 | 32790 ft | 531 kts | 47° |
| 2026-05-01 12:10 | 45.25397 | -67.85188 | 32793 ft | 530 kts | 47° |
| 2026-05-01 12:11 | 45.33514 | -67.74551 | 32784 ft | 531 kts | 48° |
| 2026-05-01 12:11 | 45.38880 | -67.67342 | 32763 ft | 530 kts | 49° |
| 2026-05-01 12:12 | 45.44175 | -67.60122 | 32752 ft | 529 kts | 49° |
| 2026-05-01 12:12 | 45.49487 | -67.52864 | 32749 ft | 529 kts | 49° |
| 2026-05-01 12:13 | 45.54783 | -67.45622 | 32746 ft | 530 kts | 49° |
| 2026-05-01 12:13 | 45.60109 | -67.38322 | 32743 ft | 530 kts | 49° |
| 2026-05-01 12:14 | 45.65407 | -67.31040 | 32741 ft | 530 kts | 50° |
| 2026-05-01 12:14 | 45.70714 | -67.23727 | 32738 ft | 529 kts | 50° |
| 2026-05-01 12:15 | 45.76025 | -67.16386 | 32737 ft | 529 kts | 50° |
| 2026-05-01 12:15 | 45.81302 | -67.09072 | 32737 ft | 530 kts | 50° |
| 2026-05-01 12:16 | 45.86580 | -67.01736 | 32738 ft | 531 kts | 50° |
| 2026-05-01 12:16 | 45.91880 | -66.94349 | 32738 ft | 532 kts | 50° |
| 2026-05-01 12:17 | 45.97187 | -66.86932 | 32737 ft | 532 kts | 50° |
| 2026-05-01 12:17 | 46.02463 | -66.79537 | 32736 ft | 532 kts | 50° |
| 2026-05-01 12:18 | 46.07763 | -66.72089 | 32738 ft | 533 kts | 49° |
| 2026-05-01 12:18 | 46.13097 | -66.64570 | 32741 ft | 533 kts | 49° |
| 2026-05-01 12:19 | 46.18391 | -66.57089 | 32738 ft | 532 kts | 49° |
| 2026-05-01 12:19 | 46.23647 | -66.49642 | 32730 ft | 532 kts | 50° |
| 2026-05-01 12:20 | 46.28917 | -66.42147 | 32731 ft | 533 kts | 50° |
| 2026-05-01 12:20 | 46.34217 | -66.34587 | 32733 ft | 534 kts | 50° |
| 2026-05-01 12:21 | 46.39516 | -66.27012 | 32735 ft | 533 kts | 50° |
| 2026-05-01 12:21 | 46.44769 | -66.19481 | 32739 ft | 533 kts | 50° |
| 2026-05-01 12:22 | 46.50021 | -66.11933 | 32744 ft | 533 kts | 50° |
| 2026-05-01 12:22 | 46.55284 | -66.04339 | 32750 ft | 534 kts | 50° |
| 2026-05-01 12:23 | 46.60551 | -65.96718 | 32757 ft | 534 kts | 50° |
| 2026-05-01 12:23 | 46.65799 | -65.89106 | 32761 ft | 534 kts | 50° |
| 2026-05-01 12:24 | 46.71027 | -65.81499 | 32764 ft | 534 kts | 50° |
| 2026-05-01 12:24 | 46.76264 | -65.73858 | 32771 ft | 533 kts | 50° |
| 2026-05-01 12:25 | 46.84092 | -65.62392 | 32783 ft | 533 kts | 49° |
| 2026-05-01 12:26 | 46.89315 | -65.54721 | 32797 ft | 533 kts | 49° |
| 2026-05-01 12:26 | 46.97127 | -65.43196 | 32815 ft | 533 kts | 49° |
| 2026-05-01 12:27 | 47.04939 | -65.31623 | 32821 ft | 532 kts | 50° |
| 2026-05-01 12:28 | 47.12731 | -65.20026 | 32823 ft | 532 kts | 49° |
| 2026-05-01 12:29 | 47.20472 | -65.08455 | 32829 ft | 531 kts | 49° |
| 2026-05-01 12:29 | 47.28234 | -64.96800 | 32837 ft | 531 kts | 49° |
| 2026-05-01 12:30 | 47.35944 | -64.85173 | 32839 ft | 530 kts | 49° |
| 2026-05-01 12:31 | 47.41083 | -64.77394 | 32841 ft | 530 kts | 49° |
| 2026-05-01 12:31 | 47.46183 | -64.69652 | 32843 ft | 529 kts | 49° |
| 2026-05-01 12:32 | 47.51300 | -64.61858 | 32846 ft | 530 kts | 48° |
| 2026-05-01 12:32 | 47.58979 | -64.50123 | 32856 ft | 530 kts | 48° |
| 2026-05-01 12:33 | 47.64085 | -64.42289 | 32867 ft | 528 kts | 48° |
| 2026-05-01 12:33 | 47.69166 | -64.34470 | 32885 ft | 528 kts | 49° |
| 2026-05-01 12:34 | 47.74237 | -64.26644 | 32905 ft | 527 kts | 49° |
| 2026-05-01 12:34 | 47.79302 | -64.18803 | 32915 ft | 527 kts | 48° |
| 2026-05-01 12:35 | 47.84340 | -64.10981 | 32921 ft | 526 kts | 48° |
| 2026-05-01 12:35 | 47.89400 | -64.03101 | 32925 ft | 526 kts | 48° |
| 2026-05-01 12:36 | 47.94433 | -63.95240 | 32931 ft | 526 kts | 48° |
| 2026-05-01 12:36 | 47.99443 | -63.87391 | 32936 ft | 526 kts | 48° |
| 2026-05-01 12:37 | 48.04484 | -63.79469 | 32941 ft | 526 kts | 48° |
| 2026-05-01 12:37 | 48.09500 | -63.71562 | 32945 ft | 526 kts | 48° |
| 2026-05-01 12:38 | 48.14509 | -63.63643 | 32948 ft | 525 kts | 48° |
| 2026-05-01 12:38 | 48.19510 | -63.55710 | 32951 ft | 525 kts | 48° |
| 2026-05-01 12:39 | 48.24511 | -63.47748 | 32954 ft | 526 kts | 48° |
| 2026-05-01 12:39 | 48.29490 | -63.39806 | 32965 ft | 525 kts | 48° |
| 2026-05-01 12:40 | 48.34474 | -63.31836 | 32979 ft | 523 kts | 49° |
| 2026-05-01 12:40 | 48.39432 | -63.23877 | 32985 ft | 522 kts | 49° |
| 2026-05-01 12:41 | 48.44368 | -63.15929 | 32988 ft | 522 kts | 48° |
| 2026-05-01 12:41 | 48.49301 | -63.07960 | 32990 ft | 521 kts | 48° |
| 2026-05-01 12:42 | 48.54217 | -62.99997 | 32993 ft | 520 kts | 48° |
| 2026-05-01 12:42 | 48.59121 | -62.92027 | 32999 ft | 519 kts | 48° |
| 2026-05-01 12:43 | 48.64014 | -62.84050 | 33007 ft | 518 kts | 48° |
| 2026-05-01 12:43 | 48.68894 | -62.76071 | 33011 ft | 518 kts | 48° |
| 2026-05-01 12:44 | 48.73763 | -62.68084 | 33014 ft | 517 kts | 48° |
| 2026-05-01 12:45 | 48.83463 | -62.52103 | 33023 ft | 516 kts | 48° |
| 2026-05-01 12:45 | 48.88288 | -62.44117 | 33037 ft | 515 kts | 48° |
| 2026-05-01 12:46 | 48.93113 | -62.36106 | 33054 ft | 515 kts | 48° |
| 2026-05-01 12:46 | 48.97939 | -62.28068 | 33063 ft | 515 kts | 49° |
| 2026-05-01 12:47 | 49.02755 | -62.20022 | 33067 ft | 515 kts | 49° |
| 2026-05-01 12:47 | 49.07558 | -62.11973 | 33069 ft | 514 kts | 49° |
| 2026-05-01 12:48 | 49.12390 | -62.03851 | 33072 ft | 514 kts | 49° |
| 2026-05-01 12:48 | 49.17179 | -61.95775 | 33077 ft | 513 kts | 49° |
| 2026-05-01 12:49 | 49.21957 | -61.87693 | 33080 ft | 512 kts | 49° |
| 2026-05-01 12:49 | 49.26684 | -61.79673 | 33086 ft | 512 kts | 49° |
| 2026-05-01 12:50 | 49.31451 | -61.71559 | 33098 ft | 511 kts | 49° |
| 2026-05-01 12:50 | 49.36164 | -61.63512 | 33118 ft | 511 kts | 49° |
| 2026-05-01 12:51 | 49.40905 | -61.55391 | 33136 ft | 510 kts | 49° |
| 2026-05-01 12:52 | 49.47966 | -61.43248 | 33144 ft | 510 kts | 50° |
| 2026-05-01 12:52 | 49.55020 | -61.31063 | 33144 ft | 510 kts | 50° |
| 2026-05-01 12:53 | 49.62048 | -61.18865 | 33147 ft | 510 kts | 50° |
| 2026-05-01 12:54 | 49.66735 | -61.10696 | 33148 ft | 510 kts | 50° |
| 2026-05-01 12:54 | 49.73771 | -60.98387 | 33149 ft | 510 kts | 50° |
| 2026-05-01 12:55 | 49.80794 | -60.86044 | 33152 ft | 510 kts | 50° |
| 2026-05-01 12:56 | 49.85455 | -60.77818 | 33158 ft | 510 kts | 50° |
| 2026-05-01 12:56 | 49.90105 | -60.69585 | 33163 ft | 510 kts | 50° |
| 2026-05-01 12:57 | 49.94765 | -60.61309 | 33164 ft | 510 kts | 50° |
| 2026-05-01 12:57 | 50.01725 | -60.48900 | 33165 ft | 510 kts | 50° |
| 2026-05-01 12:58 | 50.06381 | -60.40564 | 33165 ft | 511 kts | 51° |
| 2026-05-01 12:59 | 50.13376 | -60.27989 | 33167 ft | 510 kts | 51° |
| 2026-05-01 12:59 | 50.20330 | -60.15429 | 33175 ft | 511 kts | 51° |
| 2026-05-01 13:00 | 50.27255 | -60.02862 | 33187 ft | 510 kts | 51° |
| 2026-05-01 13:01 | 50.34146 | -59.90290 | 33203 ft | 510 kts | 51° |
| 2026-05-01 13:02 | 50.41065 | -59.77602 | 33210 ft | 510 kts | 51° |
| 2026-05-01 13:07 | 50.91181 | -58.83842 | 33246 ft | 510 kts | 52° |
| 2026-05-01 13:08 | 50.95716 | -58.75187 | 33248 ft | 510 kts | 52° |
| 2026-05-01 13:08 | 51.00209 | -58.66583 | 33251 ft | 510 kts | 52° |
| 2026-05-01 13:09 | 51.04733 | -58.57891 | 33253 ft | 510 kts | 52° |
| 2026-05-01 13:09 | 51.09220 | -58.49240 | 33256 ft | 510 kts | 52° |
| 2026-05-01 13:10 | 51.13726 | -58.40523 | 33259 ft | 510 kts | 52° |
| 2026-05-01 13:10 | 51.18253 | -58.31735 | 33261 ft | 510 kts | 53° |
| 2026-05-01 13:11 | 51.22716 | -58.23043 | 33264 ft | 510 kts | 53° |
| 2026-05-01 13:11 | 51.27199 | -58.14283 | 33267 ft | 511 kts | 53° |
| 2026-05-01 13:12 | 51.31678 | -58.05500 | 33267 ft | 511 kts | 53° |
| 2026-05-01 13:12 | 51.36155 | -57.96690 | 33267 ft | 512 kts | 53° |
| 2026-05-01 13:13 | 51.40612 | -57.87890 | 33269 ft | 511 kts | 53° |
| 2026-05-01 13:13 | 51.45100 | -57.78998 | 33274 ft | 511 kts | 53° |
| 2026-05-01 13:14 | 51.49539 | -57.70173 | 33280 ft | 511 kts | 54° |
| 2026-05-01 13:14 | 51.53982 | -57.61309 | 33281 ft | 511 kts | 54° |
| 2026-05-01 13:15 | 51.58421 | -57.52421 | 33274 ft | 511 kts | 54° |
| 2026-05-01 13:15 | 51.62842 | -57.43539 | 33264 ft | 511 kts | 54° |
| 2026-05-01 13:16 | 51.67266 | -57.34621 | 33257 ft | 511 kts | 54° |
| 2026-05-01 13:16 | 51.71672 | -57.25708 | 33250 ft | 510 kts | 54° |
| 2026-05-01 13:17 | 51.80473 | -57.07812 | 33248 ft | 509 kts | 54° |
| 2026-05-01 13:18 | 51.87042 | -56.94371 | 33267 ft | 509 kts | 54° |
| 2026-05-01 13:18 | 51.91397 | -56.85422 | 33274 ft | 509 kts | 54° |
| 2026-05-01 13:19 | 51.95748 | -56.76450 | 33276 ft | 508 kts | 54° |
| 2026-05-01 13:20 | 52.02263 | -56.62955 | 33279 ft | 507 kts | 54° |
| 2026-05-01 13:20 | 52.06612 | -56.53908 | 33279 ft | 507 kts | 54° |
| 2026-05-01 13:21 | 52.13108 | -56.40335 | 33281 ft | 507 kts | 54° |
| 2026-05-01 13:21 | 52.17420 | -56.31285 | 33284 ft | 507 kts | 55° |
| 2026-05-01 13:22 | 52.21728 | -56.22211 | 33287 ft | 506 kts | 55° |
| 2026-05-01 13:22 | 52.26036 | -56.13104 | 33293 ft | 506 kts | 55° |
| 2026-05-01 13:23 | 52.30301 | -56.04057 | 33299 ft | 506 kts | 55° |
| 2026-05-01 13:23 | 52.34576 | -55.94955 | 33303 ft | 506 kts | 55° |
| 2026-05-01 13:24 | 52.38844 | -55.85827 | 33304 ft | 505 kts | 56° |
| 2026-05-01 13:25 | 52.43978 | -55.70982 | 33310 ft | 502 kts | 66° |
| 2026-05-01 13:25 | 52.47037 | -55.60724 | 33309 ft | 502 kts | 66° |
| 2026-05-01 13:26 | 52.50123 | -55.50488 | 33309 ft | 502 kts | 65° |
| 2026-05-01 13:26 | 52.53229 | -55.40273 | 33308 ft | 502 kts | 65° |
| 2026-05-01 13:27 | 52.56320 | -55.30096 | 33307 ft | 501 kts | 66° |
| 2026-05-01 13:27 | 52.60956 | -55.14761 | 33306 ft | 501 kts | 66° |
| 2026-05-01 13:28 | 52.65561 | -54.99414 | 33305 ft | 500 kts | 66° |
| 2026-05-01 13:29 | 52.71668 | -54.78914 | 33302 ft | 500 kts | 66° |
| 2026-05-01 13:31 | 52.80753 | -54.48086 | 33299 ft | 499 kts | 66° |
| 2026-05-01 13:32 | 52.88270 | -54.22276 | 33296 ft | 499 kts | 66° |
| 2026-05-01 13:33 | 52.95702 | -53.96472 | 33293 ft | 499 kts | 66° |
| 2026-05-01 13:34 | 53.01617 | -53.75734 | 33289 ft | 499 kts | 66° |
| 2026-05-01 13:35 | 53.06021 | -53.60170 | 33290 ft | 497 kts | 66° |
| 2026-05-01 13:36 | 53.10405 | -53.44587 | 33289 ft | 497 kts | 66° |
| 2026-05-01 13:36 | 53.14761 | -53.28982 | 33288 ft | 497 kts | 67° |
| 2026-05-01 13:37 | 53.17642 | -53.18607 | 33288 ft | 497 kts | 67° |
| 2026-05-01 13:37 | 53.20537 | -53.08126 | 33287 ft | 497 kts | 67° |
| 2026-05-01 13:38 | 53.24828 | -52.92507 | 33287 ft | 497 kts | 67° |
| 2026-05-01 13:39 | 53.27698 | -52.82013 | 33287 ft | 496 kts | 67° |
| 2026-05-01 13:39 | 53.30546 | -52.71555 | 33286 ft | 496 kts | 67° |
| 2026-05-01 13:40 | 53.33376 | -52.61104 | 33287 ft | 496 kts | 67° |
| 2026-05-01 13:40 | 53.36208 | -52.50605 | 33286 ft | 496 kts | 67° |
| 2026-05-01 13:41 | 53.39023 | -52.40120 | 33284 ft | 497 kts | 67° |
| 2026-05-01 13:41 | 53.41832 | -52.29606 | 33283 ft | 497 kts | 68° |
| 2026-05-01 13:42 | 53.44643 | -52.19037 | 33282 ft | 497 kts | 68° |
| 2026-05-01 13:42 | 53.47431 | -52.08506 | 33282 ft | 497 kts | 68° |
| 2026-05-01 13:43 | 53.50233 | -51.97882 | 33282 ft | 498 kts | 68° |
| 2026-05-01 13:43 | 53.53003 | -51.87312 | 33282 ft | 498 kts | 68° |
| 2026-05-01 13:44 | 53.55779 | -51.76671 | 33282 ft | 497 kts | 68° |
| 2026-05-01 13:44 | 53.58526 | -51.66095 | 33282 ft | 497 kts | 68° |
| 2026-05-01 13:45 | 53.61286 | -51.55423 | 33282 ft | 497 kts | 67° |
| 2026-05-01 13:45 | 53.64017 | -51.44811 | 33282 ft | 497 kts | 67° |
| 2026-05-01 13:46 | 53.66741 | -51.34176 | 33281 ft | 496 kts | 68° |
| 2026-05-01 13:46 | 53.69452 | -51.23543 | 33281 ft | 496 kts | 68° |
| 2026-05-01 13:47 | 53.72166 | -51.12844 | 33281 ft | 495 kts | 68° |
| 2026-05-01 13:47 | 53.74853 | -51.02199 | 33281 ft | 495 kts | 68° |
| 2026-05-01 13:48 | 53.77527 | -50.91560 | 33281 ft | 494 kts | 68° |